Freeville, NY

10:56 PM EDT on June 30, 2015 (GMT -0400)
Thompson Vegetable Research Farm | | Change Station
CLOSE
Current Station
Personal Weather Station
Location: Freeville, NY
Elevation: 1053 ft
Nearby Weather Stations

Elev 1053 ft 42.52 °N, 76.33 °W | Updated 15 seconds ago

Overcast
Overcast
65.9 °F
Feels Like 65.9 °F
N
2.0
Wind Variable Wind from East
Gusts 7.0 mph

Today
High -- | Low -- °F
--% Chance of Precip.
Yesterday
High -- | Low -- °F
Precip. -- in
5:31 AM 8:46 PM
Waxing Gibbous, 99% visible
Pressure 29.81 in
Visibility 10.0 miles
Clouds Few 1600 ft
Scattered Clouds 11000 ft
Dew Point 64 °F
Humidity 95%
Rainfall in
Snow Depth Not available.
UV 0 out of 12
Pollen 1.10 out of 12
Air Quality Not available.
Flu Activity Sporadic
METAR KITH 010156Z 16010KT 10SM -RA FEW016 SCT110 19/18 A2982 RMK AO2 T01940183 RAB51 P0000 SLP095

More Conditions Fewer Conditions

Pressure 29.81 in
Visibility 10.0 miles
Clouds Few 1600 ft
Scattered Clouds 11000 ft
Dew Point 64 °F
Humidity 95%
Rainfall in
Snow Depth Not available.
UV 0 out of 12
Pollen 1.10 out of 12
Air Quality Not available.
Flu Activity Sporadic
METAR KITH 010156Z 16010KT 10SM -RA FEW016 SCT110 19/18 A2982 RMK AO2 T01940183 RAB51 P0000 SLP095

More Conditions Fewer Conditions

10-Day Weather Forecast

×

Almanac

Astronomy

Jun. 30, 2015 Rise Set
Actual Time
Civil Twilight
Nautical Twilight
Astronomical Twilight
Moon
Length of Visible Light
Length of Day
Tomorrow will be .
, % of the Moon is Illuminated

Today's Extremes

State Highs State Lows

Community

WunderPhotos

Upload Photos

1,834,111 photos uploaded!

WunderBlogs® & News

Nearby

Air Quality

  Air Quality AQ Index Pollutant
Not available.

Snow Depth

Station Depth Elevation

Earthquake Activity

City Distance Mag. Time & Date
Minimum magnitude displayed is 2.5.

Coastal Water Temperatures

Place Temperature

Stations

Nearby Weather Stations

Station Location Temp. Windchill Dew Point Humidity Wind Precip. Elev Updated Type